Farrsville, Texas
Current Conditions -  °F | °C
As of 2:15 PM on Friday 31 Oct 2014 (Local Time) from KJAS Reporting Station
Clear Clear  
Wind Chill: 72°   Ceiling: Unl
Heat Index: 72°   Visibility: 10mi
Dew Point: 42°   Wind: 13mph
Humidity: 35%   Direction: 330°NNW
Pressure: 30.17"   Gusts: 16mph
Location:  31.0751°N, 93.8073°W
Report Text: KJAS 311915Z AUTO 33011G14KT 310V020 10SM CLR 22/06 A3017 RMK AO2 T02200058
Loading
Personal Weather Stations






























Interactive Weather Map
Tropical Storm Tracking
New forecast layout! Learn more

10-Day Weather Forecast

Advertisements
Track Severe Weather on mobile